Glendale, Missouri
Current Conditions -  °F | °C
As of 2:51 AM on Thursday 18 Dec 2014 (Local Time) from KSTL Reporting Station
Overcast Overcast  
Wind Chill: 26°   Ceiling: 7500
Heat Index: 31°   Visibility: 10mi
Dew Point: 24°   Wind: 5mph
Humidity: 76%   Direction: 90°E
Pressure: 30.29"   Gusts: NA
Location:  38.5796°N, 90.4197°W
Report Text: KSTL 180851Z 09004KT 10SM SCT012 OVC075 M01/M04 A3029 RMK AO2 SLP265 T10061044 55006
Loading
Personal Weather Stations






























Interactive Weather Map New forecast layout! Learn more

10-Day Weather Forecast

Advertisements
Track Severe Weather on mobile